createdAt,value
2023-03-29T00:01:06.787Z,-0.71
2023-03-29T00:03:35.090Z,-0.71
2023-03-29T00:06:04.164Z,-0.71
2023-03-29T00:08:38.112Z,-0.71
2023-03-29T00:11:06.348Z,-0.71
2023-03-29T00:13:35.074Z,-0.72
2023-03-29T00:16:03.404Z,-0.67
2023-03-29T00:18:31.458Z,-0.66
2023-03-29T00:21:00.612Z,-0.61
2023-03-29T00:23:29.246Z,-0.59
2023-03-29T00:25:57.627Z,-0.64
2023-03-29T00:28:26.108Z,-0.71
2023-03-29T00:31:10.822Z,-0.78
2023-03-29T00:33:39.906Z,-0.78
2023-03-29T00:36:09.161Z,-0.82
2023-03-29T00:38:38.094Z,-0.88
2023-03-29T00:41:08.067Z,-0.92
2023-03-29T00:43:57.236Z,-0.97
2023-03-29T00:46:27.389Z,-1.00
2023-03-29T00:49:02.003Z,-1.00
2023-03-29T00:51:32.091Z,-0.99
2023-03-29T00:54:03.754Z,-0.98
2023-03-29T00:56:37.283Z,-0.94
2023-03-29T00:59:16.472Z,-0.87
2023-03-29T01:01:54.803Z,-0.94
2023-03-29T01:04:36.361Z,-0.99
2023-03-29T01:07:25.867Z,-1.04
2023-03-29T01:10:27.703Z,-1.03
2023-03-29T01:13:03.897Z,-1.08
2023-03-29T01:15:32.242Z,-1.12
2023-03-29T01:18:02.177Z,-1.09
2023-03-29T01:20:49.190Z,-1.07
2023-03-29T01:23:26.984Z,-1.01
2023-03-29T01:26:19.886Z,-1.00
2023-03-29T01:28:57.988Z,-0.97
2023-03-29T01:31:33.149Z,-1.07
2023-03-29T01:34:09.619Z,-0.93
2023-03-29T01:36:54.916Z,-0.89
2023-03-29T01:39:23.076Z,-0.81
2023-03-29T01:42:02.305Z,-0.64
2023-03-29T01:44:39.849Z,-0.64
2023-03-29T01:47:13.854Z,-0.62
2023-03-29T01:49:50.582Z,-0.62
2023-03-29T01:52:25.575Z,-0.51
2023-03-29T01:55:01.060Z,-0.40
2023-03-29T01:57:33.224Z,-0.32
2023-03-29T02:00:08.250Z,-0.29
2023-03-29T02:02:44.878Z,-0.30
2023-03-29T02:05:15.392Z,-0.44
2023-03-29T02:07:46.077Z,-0.42
2023-03-29T02:10:16.474Z,-0.48
2023-03-29T02:12:44.697Z,-0.45
2023-03-29T02:15:15.954Z,-0.53
2023-03-29T02:17:44.449Z,-0.66
2023-03-29T02:20:20.638Z,-0.78
2023-03-29T02:23:02.261Z,-0.88
2023-03-29T02:25:32.702Z,-1.04
2023-03-29T02:28:01.986Z,-1.02
2023-03-29T02:30:48.550Z,-0.89
2023-03-29T02:33:25.292Z,-0.86
2023-03-29T02:36:05.281Z,-0.85
2023-03-29T02:38:34.916Z,-0.66
2023-03-29T02:41:04.212Z,-0.55
2023-03-29T02:43:34.758Z,-0.68
2023-03-29T02:46:05.276Z,-0.70
2023-03-29T02:48:37.185Z,-0.57
2023-03-29T02:51:33.415Z,-0.51
2023-03-29T02:54:23.516Z,-0.38
2023-03-29T02:57:06.679Z,-0.58
2023-03-29T02:59:35.314Z,-0.62
2023-03-29T03:02:03.486Z,-0.64
2023-03-29T03:04:35.499Z,-0.60
2023-03-29T03:07:07.555Z,-0.80
2023-03-29T03:09:35.853Z,-0.70
2023-03-29T03:12:04.207Z,-0.76
2023-03-29T03:14:32.888Z,-0.69
2023-03-29T03:17:03.904Z,-0.56
2023-03-29T03:19:33.225Z,-0.61
2023-03-29T03:22:01.253Z,-0.69
2023-03-29T03:24:29.583Z,-0.71
2023-03-29T03:26:58.853Z,-0.81
2023-03-29T03:29:28.599Z,-0.91
2023-03-29T03:32:15.486Z,-0.86
2023-03-29T03:34:49.923Z,-0.78
2023-03-29T03:37:18.291Z,-0.79
2023-03-29T03:39:46.880Z,-0.89
2023-03-29T03:42:15.527Z,-1.04
2023-03-29T03:44:44.981Z,-1.13
2023-03-29T03:47:39.648Z,-1.29
2023-03-29T03:50:28.706Z,-1.19
2023-03-29T03:52:57.413Z,-1.14
2023-03-29T03:55:25.838Z,-1.02
2023-03-29T03:58:13.244Z,-1.02
2023-03-29T04:00:42.696Z,-1.05
2023-03-29T04:03:24.289Z,-1.10
2023-03-29T04:05:53.790Z,-0.98
2023-03-29T04:08:22.781Z,-0.97
2023-03-29T04:11:10.728Z,-1.04
2023-03-29T04:13:42.321Z,-1.10
2023-03-29T04:16:26.587Z,-1.20
2023-03-29T04:18:55.009Z,-1.25
2023-03-29T04:21:23.634Z,-1.30
2023-03-29T04:23:51.660Z,-1.32
2023-03-29T04:26:19.827Z,-1.27
2023-03-29T04:28:50.934Z,-1.27
2023-03-29T04:31:24.096Z,-1.20
2023-03-29T04:34:09.840Z,-1.22
2023-03-29T04:36:39.132Z,-1.00
2023-03-29T04:39:11.397Z,-0.35
2023-03-29T04:41:40.502Z,0.31
2023-03-29T04:44:20.653Z,0.86
2023-03-29T04:46:49.226Z,1.43
2023-03-29T04:49:37.986Z,1.90
2023-03-29T04:52:09.350Z,2.35
2023-03-29T04:54:38.639Z,2.43
2023-03-29T04:57:21.088Z,2.51
2023-03-29T05:00:15.151Z,2.88
2023-03-29T05:03:13.563Z,3.49
2023-03-29T05:05:56.220Z,3.64
2023-03-29T05:08:24.395Z,3.98
2023-03-29T05:11:10.393Z,4.32
2023-03-29T05:13:38.652Z,4.52
2023-03-29T05:16:08.081Z,4.43
2023-03-29T05:18:37.172Z,4.50
2023-03-29T05:21:06.552Z,4.39
2023-03-29T05:23:35.424Z,4.58
2023-03-29T05:26:09.932Z,4.98
2023-03-29T05:28:38.845Z,4.94
2023-03-29T05:31:08.700Z,5.12
2023-03-29T05:33:38.673Z,5.30
2023-03-29T05:36:11.234Z,5.37
2023-03-29T05:38:45.201Z,5.48
2023-03-29T05:41:16.026Z,5.42
2023-03-29T05:44:02.986Z,5.87
2023-03-29T05:46:31.687Z,5.89
2023-03-29T05:49:02.625Z,5.36
2023-03-29T05:51:57.008Z,5.33
2023-03-29T05:54:26.459Z,5.25
2023-03-29T05:56:54.831Z,4.94
2023-03-29T05:59:24.565Z,5.26
2023-03-29T06:01:53.045Z,5.12
2023-03-29T06:04:22.592Z,4.25
2023-03-29T06:07:12.749Z,3.74
2023-03-29T06:09:42.175Z,3.05
2023-03-29T06:12:10.794Z,2.82
2023-03-29T06:14:51.220Z,2.19
2023-03-29T06:17:29.359Z,1.85
2023-03-29T06:19:58.120Z,1.90
2023-03-29T06:22:27.932Z,2.15
2023-03-29T06:24:56.731Z,2.23
2023-03-29T06:27:28.131Z,2.21
2023-03-29T06:29:56.949Z,2.88
2023-03-29T06:32:25.924Z,2.84
2023-03-29T06:35:02.720Z,2.53
2023-03-29T06:37:33.958Z,1.68
2023-03-29T06:40:31.399Z,1.87
2023-03-29T06:43:00.057Z,3.05
2023-03-29T06:46:04.651Z,3.22
2023-03-29T06:48:43.426Z,3.12
2023-03-29T06:51:11.768Z,3.45
2023-03-29T06:53:41.156Z,3.10
2023-03-29T06:56:09.896Z,3.37
2023-03-29T06:58:45.230Z,4.46
2023-03-29T07:01:34.997Z,5.51
2023-03-29T07:04:17.823Z,6.47
2023-03-29T07:07:07.852Z,7.27
2023-03-29T07:09:40.024Z,7.18
2023-03-29T07:12:41.063Z,6.01
2023-03-29T07:15:09.968Z,6.18
2023-03-29T07:18:08.475Z,5.76
2023-03-29T07:20:39.055Z,6.12
2023-03-29T07:23:11.908Z,6.48
2023-03-29T07:25:41.103Z,6.11
2023-03-29T07:28:09.415Z,6.92
2023-03-29T07:30:37.656Z,6.37
2023-03-29T07:33:13.464Z,6.34
2023-03-29T07:35:49.423Z,6.65
2023-03-29T07:38:18.702Z,6.46
2023-03-29T07:40:54.658Z,5.91
2023-03-29T07:43:31.597Z,6.31
2023-03-29T07:46:05.309Z,6.98
2023-03-29T07:48:37.225Z,7.51
2023-03-29T07:51:16.497Z,6.84
2023-03-29T07:53:53.328Z,6.88
2023-03-29T07:56:47.727Z,7.21
2023-03-29T07:59:28.738Z,7.70
2023-03-29T08:02:06.791Z,7.93
2023-03-29T08:04:41.308Z,8.14
2023-03-29T08:07:21.769Z,7.07
2023-03-29T08:10:10.456Z,6.06
2023-03-29T08:12:53.934Z,5.28
2023-03-29T08:15:28.211Z,4.38
2023-03-29T08:17:56.883Z,4.04
2023-03-29T08:20:28.233Z,3.60
2023-03-29T08:22:59.403Z,4.14
2023-03-29T08:25:47.256Z,5.08
2023-03-29T08:28:17.069Z,5.23
2023-03-29T08:30:48.345Z,4.97
2023-03-29T08:33:17.192Z,4.94
2023-03-29T08:35:46.533Z,4.62
2023-03-29T08:38:22.784Z,5.13
2023-03-29T08:40:51.329Z,5.60
2023-03-29T08:43:20.497Z,5.86
2023-03-29T08:46:37.313Z,6.08
2023-03-29T08:49:20.061Z,6.36
2023-03-29T08:51:54.264Z,5.79
2023-03-29T08:54:29.294Z,5.11
2023-03-29T08:57:31.880Z,4.34
2023-03-29T09:00:13.415Z,4.00
2023-03-29T09:02:43.922Z,4.28
2023-03-29T09:05:25.921Z,5.10
2023-03-29T09:08:13.840Z,4.93
2023-03-29T09:11:01.010Z,4.79
2023-03-29T09:13:43.143Z,4.88
2023-03-29T09:16:20.552Z,5.01
2023-03-29T09:18:51.468Z,5.11
2023-03-29T09:21:49.856Z,5.32
2023-03-29T09:24:44.556Z,4.76
2023-03-29T09:27:23.169Z,4.26
2023-03-29T09:30:00.749Z,4.06
2023-03-29T09:32:53.880Z,4.59
2023-03-29T09:35:36.016Z,5.00
2023-03-29T09:38:09.534Z,5.56
2023-03-29T09:40:53.440Z,5.71
2023-03-29T09:43:36.358Z,5.80
2023-03-29T09:46:17.001Z,6.41
2023-03-29T09:48:46.579Z,6.73
2023-03-29T09:51:16.547Z,6.63
2023-03-29T09:53:45.337Z,6.96
2023-03-29T09:56:19.751Z,6.98
2023-03-29T09:58:51.508Z,7.09
2023-03-29T10:01:20.488Z,7.17
2023-03-29T10:03:54.345Z,7.09
2023-03-29T10:06:26.997Z,6.88
2023-03-29T10:08:59.512Z,7.10
2023-03-29T10:11:37.065Z,6.81
2023-03-29T10:14:13.657Z,6.41
2023-03-29T10:16:47.710Z,5.95
2023-03-29T10:19:35.878Z,6.01
2023-03-29T10:22:16.535Z,6.08
2023-03-29T10:24:51.480Z,6.50
2023-03-29T10:27:24.236Z,6.41
2023-03-29T10:29:54.353Z,6.26
2023-03-29T10:32:23.203Z,5.84
2023-03-29T10:34:52.284Z,5.14
2023-03-29T10:37:23.262Z,5.07
2023-03-29T10:39:52.125Z,5.37
2023-03-29T10:42:24.396Z,5.70
2023-03-29T10:44:55.537Z,5.61
2023-03-29T10:47:24.883Z,5.50
2023-03-29T10:49:57.073Z,5.96
2023-03-29T10:52:26.135Z,6.63
2023-03-29T10:54:56.525Z,6.42
2023-03-29T10:57:45.173Z,6.01
2023-03-29T11:00:18.941Z,5.78
2023-03-29T11:03:06.445Z,6.05
2023-03-29T11:05:43.259Z,6.21
2023-03-29T11:08:15.196Z,6.19
2023-03-29T11:10:55.660Z,6.21
2023-03-29T11:13:51.778Z,6.17
2023-03-29T11:16:59.707Z,6.34
2023-03-29T11:20:00.266Z,6.51
2023-03-29T11:22:56.751Z,6.21
2023-03-29T11:25:59.328Z,6.25
2023-03-29T11:28:28.733Z,6.39
2023-03-29T11:31:17.501Z,6.42
2023-03-29T11:34:19.248Z,6.05
2023-03-29T11:36:50.672Z,5.81
2023-03-29T11:39:36.998Z,6.23
2023-03-29T11:42:17.861Z,6.24
2023-03-29T11:44:48.594Z,6.12
2023-03-29T11:47:23.187Z,5.67
2023-03-29T11:49:57.599Z,5.68
2023-03-29T11:52:32.843Z,5.69
2023-03-29T11:55:05.276Z,5.46
2023-03-29T11:57:56.767Z,5.26
2023-03-29T12:00:31.002Z,5.34
2023-03-29T12:03:07.697Z,5.32
2023-03-29T12:06:04.517Z,5.68
2023-03-29T12:08:42.389Z,5.68
2023-03-29T12:11:29.420Z,5.59
2023-03-29T12:14:15.708Z,5.68
2023-03-29T12:16:57.315Z,5.72
2023-03-29T12:19:31.674Z,5.62
2023-03-29T12:22:01.739Z,5.38
2023-03-29T12:24:32.684Z,5.29
2023-03-29T12:27:22.508Z,5.32
2023-03-29T12:30:18.407Z,5.20
2023-03-29T12:32:56.264Z,5.03
2023-03-29T12:35:53.309Z,4.95
2023-03-29T12:38:57.161Z,4.98
2023-03-29T12:41:48.860Z,5.08
2023-03-29T12:45:00.362Z,5.00
2023-03-29T12:47:45.761Z,5.21
2023-03-29T12:50:28.655Z,5.52
2023-03-29T12:53:15.095Z,5.60
2023-03-29T12:55:43.677Z,5.57
2023-03-29T12:58:30.807Z,5.51
2023-03-29T13:01:31.567Z,5.32
2023-03-29T13:03:59.613Z,5.33
2023-03-29T13:06:27.579Z,5.27
2023-03-29T13:09:20.792Z,5.47
2023-03-29T13:12:15.942Z,5.73
2023-03-29T13:14:49.959Z,5.74
2023-03-29T13:17:52.911Z,5.35
2023-03-29T13:20:30.257Z,5.27
2023-03-29T13:23:14.577Z,5.43
2023-03-29T13:26:03.057Z,5.67
2023-03-29T13:28:57.943Z,5.71
2023-03-29T13:31:26.800Z,5.84
2023-03-29T13:34:17.871Z,5.78
2023-03-29T13:36:53.756Z,5.94
2023-03-29T13:39:24.686Z,6.07
2023-03-29T13:41:54.653Z,5.96
2023-03-29T13:44:22.728Z,5.77
2023-03-29T13:47:22.041Z,5.77
2023-03-29T13:49:53.603Z,5.81
2023-03-29T13:52:50.034Z,6.21
2023-03-29T13:55:24.669Z,6.74
2023-03-29T13:58:15.964Z,6.84
2023-03-29T14:00:54.306Z,7.06
2023-03-29T14:03:29.832Z,7.17
2023-03-29T14:06:01.265Z,7.02
2023-03-29T14:08:34.720Z,6.82
2023-03-29T14:11:07.045Z,6.72
2023-03-29T14:13:35.622Z,6.83
2023-03-29T14:16:09.196Z,6.93
2023-03-29T14:18:41.288Z,7.23
2023-03-29T14:21:12.681Z,7.36
2023-03-29T14:23:44.998Z,7.25
2023-03-29T14:26:19.730Z,7.23
2023-03-29T14:28:49.643Z,7.36
2023-03-29T14:31:23.778Z,7.51
2023-03-29T14:33:53.766Z,7.63
2023-03-29T14:36:23.367Z,7.51
2023-03-29T14:38:59.621Z,7.40
2023-03-29T14:41:32.621Z,7.19
2023-03-29T14:44:03.047Z,7.12
2023-03-29T14:46:31.828Z,7.34
2023-03-29T14:49:02.264Z,7.38
2023-03-29T14:51:31.364Z,7.55
2023-03-29T14:54:03.292Z,7.43
2023-03-29T14:56:33.135Z,7.16
2023-03-29T14:59:04.169Z,6.69
2023-03-29T15:01:32.495Z,6.50
2023-03-29T15:04:09.276Z,6.60
2023-03-29T15:06:44.079Z,6.68
2023-03-29T15:09:25.117Z,6.66
2023-03-29T15:11:58.753Z,6.63
2023-03-29T15:14:33.878Z,6.52
2023-03-29T15:17:22.874Z,6.45
2023-03-29T15:19:59.477Z,6.43
2023-03-29T15:22:34.619Z,6.60
2023-03-29T15:25:03.350Z,6.71
2023-03-29T15:27:44.440Z,6.40
2023-03-29T15:30:18.270Z,6.11
2023-03-29T15:32:46.646Z,5.80
2023-03-29T15:35:25.987Z,5.66
2023-03-29T15:37:54.227Z,5.47
2023-03-29T15:40:28.254Z,5.32
2023-03-29T15:42:56.910Z,5.50
2023-03-29T15:45:26.082Z,5.56
2023-03-29T15:47:54.403Z,5.29
2023-03-29T15:50:23.463Z,5.29
2023-03-29T15:52:52.907Z,5.35
2023-03-29T15:55:21.179Z,5.19
2023-03-29T15:57:52.869Z,5.04
2023-03-29T16:00:22.493Z,4.86
2023-03-29T16:02:51.646Z,4.74
2023-03-29T16:05:20.055Z,4.63
2023-03-29T16:07:48.408Z,4.59
2023-03-29T16:10:16.698Z,4.68
2023-03-29T16:12:44.783Z,4.84
2023-03-29T16:15:20.538Z,4.81
2023-03-29T16:17:48.818Z,4.71
2023-03-29T16:20:20.179Z,4.58
2023-03-29T16:22:49.234Z,4.47
2023-03-29T16:25:22.839Z,4.33
2023-03-29T16:27:55.639Z,4.25
2023-03-29T16:30:24.946Z,4.25
2023-03-29T16:32:53.232Z,4.28
2023-03-29T16:35:33.270Z,4.32
2023-03-29T16:38:01.630Z,4.46
2023-03-29T16:40:29.826Z,4.65
2023-03-29T16:42:58.073Z,4.76
2023-03-29T16:45:28.694Z,4.98
2023-03-29T16:47:57.319Z,5.15
2023-03-29T16:50:25.754Z,5.37
2023-03-29T16:52:54.239Z,5.55
2023-03-29T16:55:22.975Z,5.76
2023-03-29T16:57:51.214Z,6.01
2023-03-29T17:00:20.452Z,6.19
2023-03-29T17:02:51.762Z,6.33
2023-03-29T17:05:20.123Z,6.36
2023-03-29T17:07:48.253Z,6.32
2023-03-29T17:10:16.641Z,6.33
2023-03-29T17:12:45.092Z,6.37
2023-03-29T17:15:13.215Z,6.47
2023-03-29T17:17:41.661Z,6.61
2023-03-29T17:20:14.422Z,6.54
2023-03-29T17:22:42.646Z,6.38
2023-03-29T17:25:10.938Z,6.13
2023-03-29T17:27:39.052Z,5.77
2023-03-29T17:30:10.621Z,5.63
2023-03-29T17:32:40.231Z,5.68
2023-03-29T17:35:13.630Z,5.65
2023-03-29T17:37:42.666Z,5.65
2023-03-29T17:40:14.043Z,5.52
2023-03-29T17:42:43.991Z,5.49
2023-03-29T17:45:12.136Z,5.49
2023-03-29T17:47:40.957Z,5.49
2023-03-29T17:50:11.497Z,5.56
2023-03-29T17:52:40.178Z,5.58
2023-03-29T17:55:11.435Z,5.59
2023-03-29T17:57:40.836Z,5.66
2023-03-29T18:00:10.765Z,5.64
2023-03-29T18:02:39.904Z,5.55
2023-03-29T18:05:09.646Z,5.72
2023-03-29T18:07:38.412Z,5.94
2023-03-29T18:10:07.850Z,6.21
2023-03-29T18:12:36.762Z,6.49
2023-03-29T18:15:06.395Z,6.65
2023-03-29T18:17:36.550Z,6.57
2023-03-29T18:20:11.837Z,6.49
2023-03-29T18:22:43.922Z,6.56
2023-03-29T18:25:12.160Z,6.48
2023-03-29T18:27:41.019Z,6.52
2023-03-29T18:30:09.929Z,6.54
2023-03-29T18:32:38.325Z,6.44
2023-03-29T18:35:10.258Z,6.16
2023-03-29T18:37:38.956Z,6.08
2023-03-29T18:40:08.396Z,6.06
2023-03-29T18:42:36.739Z,6.18
2023-03-29T18:45:05.811Z,6.35
2023-03-29T18:47:33.913Z,6.22
2023-03-29T18:50:02.972Z,6.17
2023-03-29T18:52:31.224Z,6.01
2023-03-29T18:54:59.322Z,5.78
2023-03-29T18:57:28.139Z,5.79
2023-03-29T18:59:56.686Z,5.72
2023-03-29T19:02:27.373Z,5.38
2023-03-29T19:04:57.286Z,5.26
2023-03-29T19:07:25.641Z,5.46
2023-03-29T19:09:53.698Z,5.54
2023-03-29T19:12:24.627Z,5.59
2023-03-29T19:14:52.859Z,5.64
2023-03-29T19:17:21.802Z,5.37
2023-03-29T19:19:49.956Z,5.16
2023-03-29T19:22:18.142Z,5.01
2023-03-29T19:24:46.402Z,4.31
2023-03-29T19:27:14.796Z,3.86
2023-03-29T19:29:42.854Z,4.17
2023-03-29T19:32:11.192Z,4.45
2023-03-29T19:34:39.287Z,4.48
2023-03-29T19:37:07.336Z,4.41
2023-03-29T19:39:36.186Z,4.64
2023-03-29T19:42:04.422Z,4.62
2023-03-29T19:44:33.822Z,4.53
2023-03-29T19:47:02.165Z,4.44
2023-03-29T19:49:30.680Z,4.31
2023-03-29T19:51:59.272Z,3.97
2023-03-29T19:54:27.334Z,3.74
2023-03-29T19:56:57.416Z,3.74
2023-03-29T19:59:27.223Z,3.76
2023-03-29T20:01:57.102Z,3.97
2023-03-29T20:04:25.499Z,4.18
2023-03-29T20:06:53.617Z,4.29
2023-03-29T20:09:22.000Z,4.54
2023-03-29T20:11:50.682Z,4.94
2023-03-29T20:14:18.954Z,5.16
2023-03-29T20:16:47.110Z,5.45
2023-03-29T20:19:17.710Z,5.51
2023-03-29T20:21:45.907Z,5.31
2023-03-29T20:24:14.331Z,5.22
2023-03-29T20:26:42.503Z,5.11
2023-03-29T20:29:10.541Z,5.10
2023-03-29T20:31:38.677Z,5.14
2023-03-29T20:34:07.267Z,5.28
2023-03-29T20:36:35.827Z,5.47
2023-03-29T20:39:04.990Z,5.54
2023-03-29T20:41:33.982Z,5.38
2023-03-29T20:44:03.026Z,5.15
2023-03-29T20:46:35.045Z,5.13
2023-03-29T20:49:07.402Z,5.14
2023-03-29T20:51:36.331Z,5.17
2023-03-29T20:54:07.844Z,5.27
2023-03-29T20:56:39.827Z,5.44
2023-03-29T20:59:10.869Z,5.69
2023-03-29T21:01:41.194Z,5.91
2023-03-29T21:04:11.065Z,5.85
2023-03-29T21:06:39.803Z,5.79
2023-03-29T21:09:08.705Z,5.90
2023-03-29T21:11:36.935Z,5.79
2023-03-29T21:14:04.992Z,5.30
2023-03-29T21:16:33.296Z,4.90
2023-03-29T21:19:01.593Z,4.58
2023-03-29T21:21:29.754Z,4.38
2023-03-29T21:23:57.902Z,4.58
2023-03-29T21:26:26.580Z,4.57
2023-03-29T21:28:54.779Z,4.49
2023-03-29T21:31:22.895Z,4.45
2023-03-29T21:33:53.031Z,4.28
2023-03-29T21:36:21.143Z,4.16
2023-03-29T21:38:50.317Z,4.12
2023-03-29T21:41:19.200Z,4.16
2023-03-29T21:43:47.371Z,4.01
2023-03-29T21:46:15.726Z,3.40
2023-03-29T21:48:44.052Z,3.61
2023-03-29T21:51:12.197Z,3.98
2023-03-29T21:53:40.481Z,4.07
2023-03-29T21:56:12.209Z,4.07
2023-03-29T21:58:40.613Z,4.12
2023-03-29T22:01:10.522Z,4.27
2023-03-29T22:03:39.009Z,4.48
2023-03-29T22:06:09.512Z,4.45
2023-03-29T22:08:40.527Z,4.37
2023-03-29T22:11:14.074Z,4.37
2023-03-29T22:13:43.496Z,4.28
2023-03-29T22:16:18.360Z,4.13
2023-03-29T22:18:49.757Z,3.76
2023-03-29T22:21:25.233Z,3.81
2023-03-29T22:23:56.064Z,3.83
2023-03-29T22:26:27.847Z,3.83
2023-03-29T22:28:57.486Z,3.91
2023-03-29T22:31:27.400Z,4.01
2023-03-29T22:33:56.498Z,4.16
2023-03-29T22:36:27.821Z,4.23
2023-03-29T22:38:56.367Z,4.19
2023-03-29T22:41:27.740Z,4.24
2023-03-29T22:43:58.093Z,4.27
2023-03-29T22:46:27.346Z,4.34
2023-03-29T22:48:55.878Z,4.33
2023-03-29T22:51:24.014Z,4.37
2023-03-29T22:53:52.082Z,4.29
2023-03-29T22:56:20.552Z,4.13
2023-03-29T22:58:48.654Z,3.98
2023-03-29T23:01:17.006Z,3.94
2023-03-29T23:03:45.625Z,3.87
2023-03-29T23:06:13.711Z,3.76
2023-03-29T23:08:41.900Z,4.00
2023-03-29T23:11:10.221Z,4.29
2023-03-29T23:13:38.887Z,4.35
2023-03-29T23:16:07.882Z,4.54
2023-03-29T23:18:37.660Z,4.59
2023-03-29T23:21:09.066Z,4.48
2023-03-29T23:23:37.590Z,4.15
2023-03-29T23:26:06.589Z,3.69
2023-03-29T23:28:35.448Z,3.76
2023-03-29T23:31:10.378Z,3.93
2023-03-29T23:33:41.323Z,4.00
2023-03-29T23:36:12.817Z,4.10
2023-03-29T23:38:42.483Z,4.18
2023-03-29T23:41:12.946Z,3.75
2023-03-29T23:43:43.468Z,3.22
2023-03-29T23:46:15.283Z,2.94
2023-03-29T23:48:49.220Z,3.08
2023-03-29T23:51:23.045Z,3.07
2023-03-29T23:53:52.014Z,2.91
2023-03-29T23:56:21.736Z,2.91
2023-03-29T23:58:50.169Z,3.15
